createdAt,value
2022-12-13T00:00:47.231Z,-4.00
2022-12-13T00:03:18.800Z,-4.00
2022-12-13T00:05:50.392Z,-3.99
2022-12-13T00:08:22.003Z,-4.01
2022-12-13T00:11:06.232Z,-4.08
2022-12-13T00:13:37.879Z,-4.13
2022-12-13T00:16:18.735Z,-4.18
2022-12-13T00:18:55.891Z,-4.21
2022-12-13T00:21:30.449Z,-4.20
2022-12-13T00:24:02.390Z,-4.17
2022-12-13T00:26:34.354Z,-4.14
2022-12-13T00:29:07.274Z,-4.13
2022-12-13T00:34:30.797Z,-4.13
2022-12-13T00:37:02.343Z,-4.15
2022-12-13T00:39:36.854Z,-4.14
2022-12-13T00:42:08.464Z,-4.16
2022-12-13T00:44:39.981Z,-4.18
2022-12-13T00:47:11.556Z,-4.18
2022-12-13T00:49:43.145Z,-4.20
2022-12-13T00:52:17.059Z,-4.25
2022-12-13T00:54:48.727Z,-4.26
2022-12-13T00:57:21.223Z,-4.26
2022-12-13T00:59:52.997Z,-4.28
2022-12-13T01:02:24.542Z,-4.28
2022-12-13T01:04:56.075Z,-4.30
2022-12-13T01:07:29.064Z,-4.32
2022-12-13T01:10:00.953Z,-4.37
2022-12-13T01:12:33.174Z,-4.42
2022-12-13T01:15:06.895Z,-4.46
2022-12-13T01:17:41.387Z,-4.51
2022-12-13T01:20:13.105Z,-4.63
2022-12-13T01:22:44.651Z,-4.65
2022-12-13T01:25:19.341Z,-4.65
2022-12-13T01:27:50.785Z,-4.67
2022-12-13T01:30:22.337Z,-4.65
2022-12-13T01:32:53.944Z,-4.68
2022-12-13T01:35:25.493Z,-4.71
2022-12-13T01:37:58.294Z,-4.73
2022-12-13T01:40:32.169Z,-4.74
2022-12-13T01:43:14.784Z,-4.72
2022-12-13T01:45:46.685Z,-4.73
2022-12-13T01:48:26.213Z,-4.74
2022-12-13T01:51:07.008Z,-4.76
2022-12-13T01:53:42.634Z,-4.78
2022-12-13T01:56:20.032Z,-4.79
2022-12-13T01:58:54.832Z,-4.83
2022-12-13T02:01:28.280Z,-4.86
2022-12-13T02:03:59.989Z,-4.87
2022-12-13T02:06:35.898Z,-4.91
2022-12-13T02:09:08.932Z,-4.92
2022-12-13T02:11:43.638Z,-4.96
2022-12-13T02:14:15.125Z,-4.98
2022-12-13T02:16:58.183Z,-5.00
2022-12-13T02:19:56.608Z,-5.02
2022-12-13T02:23:02.048Z,-5.01
2022-12-13T02:26:03.588Z,-5.03
2022-12-13T02:28:47.041Z,-5.05
2022-12-13T02:31:43.935Z,-5.04
2022-12-13T02:34:24.519Z,-5.07
2022-12-13T02:37:18.122Z,-5.07
2022-12-13T02:39:58.568Z,-5.08
2022-12-13T02:42:41.910Z,-5.07
2022-12-13T02:45:37.951Z,-5.09
2022-12-13T02:48:12.292Z,-5.14
2022-12-13T02:50:46.044Z,-5.15
2022-12-13T02:53:19.285Z,-5.20
2022-12-13T02:55:50.824Z,-5.24
2022-12-13T02:58:29.319Z,-5.25
2022-12-13T03:01:28.950Z,-5.28
2022-12-13T03:04:22.180Z,-5.30
2022-12-13T03:07:25.843Z,-5.33
2022-12-13T03:10:06.508Z,-5.35
2022-12-13T03:13:27.051Z,-5.36
2022-12-13T03:16:08.611Z,-5.38
2022-12-13T03:18:41.638Z,-5.36
2022-12-13T03:21:13.613Z,-5.37
2022-12-13T03:23:47.383Z,-5.38
2022-12-13T03:26:22.404Z,-5.41
2022-12-13T03:28:54.468Z,-5.44
2022-12-13T03:31:27.605Z,-5.44
2022-12-13T03:33:59.366Z,-5.45
2022-12-13T03:36:31.198Z,-5.47
2022-12-13T03:39:05.521Z,-5.47
2022-12-13T03:41:37.196Z,-5.52
2022-12-13T03:44:08.795Z,-5.54
2022-12-13T03:46:40.494Z,-5.55
2022-12-13T03:49:16.817Z,-5.62
2022-12-13T03:51:49.078Z,-5.65
2022-12-13T03:54:24.277Z,-5.66
2022-12-13T03:56:55.945Z,-5.64
2022-12-13T03:59:27.812Z,-5.64
2022-12-13T04:01:59.648Z,-5.66
2022-12-13T04:04:31.426Z,-5.67
2022-12-13T04:07:03.133Z,-5.70
2022-12-13T04:09:34.715Z,-5.69
2022-12-13T04:12:28.604Z,-5.72
2022-12-13T04:15:00.170Z,-5.73
2022-12-13T04:17:31.792Z,-5.73
2022-12-13T04:20:04.053Z,-5.72
2022-12-13T04:22:35.753Z,-5.70
2022-12-13T04:25:08.011Z,-5.72
2022-12-13T04:27:40.115Z,-5.72
2022-12-13T04:30:13.072Z,-5.78
2022-12-13T04:32:46.801Z,-5.79
2022-12-13T04:35:18.583Z,-5.81
2022-12-13T04:37:50.998Z,-5.82
2022-12-13T04:40:24.174Z,-5.83
2022-12-13T04:42:55.936Z,-5.87
2022-12-13T04:45:27.753Z,-5.89
2022-12-13T04:48:02.315Z,-5.91
2022-12-13T04:50:34.060Z,-5.93
2022-12-13T04:53:05.693Z,-5.92
2022-12-13T04:55:37.270Z,-5.91
2022-12-13T04:58:08.831Z,-5.93
2022-12-13T05:00:41.007Z,-5.96
2022-12-13T05:03:16.203Z,-5.95
2022-12-13T05:05:50.353Z,-5.96
2022-12-13T05:08:22.353Z,-5.97
2022-12-13T05:10:54.674Z,-5.98
2022-12-13T05:13:26.583Z,-6.04
2022-12-13T05:16:06.173Z,-6.10
2022-12-13T05:18:38.743Z,-6.15
2022-12-13T05:21:12.181Z,-6.21
2022-12-13T05:23:43.760Z,-6.19
2022-12-13T05:26:15.385Z,-6.19
2022-12-13T05:28:49.133Z,-6.29
2022-12-13T05:31:24.197Z,-6.29
2022-12-13T05:34:01.508Z,-6.34
2022-12-13T05:36:33.354Z,-6.41
2022-12-13T05:39:04.983Z,-6.42
2022-12-13T05:41:37.192Z,-6.39
2022-12-13T05:44:10.507Z,-6.34
2022-12-13T05:46:42.094Z,-6.29
2022-12-13T05:49:13.739Z,-6.25
2022-12-13T05:51:45.321Z,-6.26
2022-12-13T05:54:16.944Z,-6.29
2022-12-13T05:56:48.587Z,-6.29
2022-12-13T05:59:20.200Z,-6.28
2022-12-13T06:01:51.916Z,-6.34
2022-12-13T06:04:23.787Z,-6.47
2022-12-13T06:06:55.534Z,-6.58
2022-12-13T06:09:27.124Z,-6.73
2022-12-13T06:12:01.003Z,-6.76
2022-12-13T06:14:33.261Z,-6.72
2022-12-13T06:17:09.858Z,-6.72
2022-12-13T06:19:41.702Z,-6.70
2022-12-13T06:22:14.553Z,-6.67
2022-12-13T06:24:46.545Z,-6.74
2022-12-13T06:27:18.209Z,-6.80
2022-12-13T06:29:49.863Z,-6.86
2022-12-13T06:32:21.426Z,-6.79
2022-12-13T06:34:53.010Z,-6.82
2022-12-13T06:37:28.476Z,-6.88
2022-12-13T06:40:00.206Z,-6.82
2022-12-13T06:42:32.062Z,-6.75
2022-12-13T06:45:04.872Z,-6.69
2022-12-13T06:47:38.751Z,-6.67
2022-12-13T06:50:13.173Z,-6.60
2022-12-13T06:52:46.575Z,-6.57
2022-12-13T06:55:23.883Z,-6.53
2022-12-13T06:57:58.415Z,-6.48
2022-12-13T07:00:36.897Z,-6.46
2022-12-13T07:03:12.674Z,-6.45
2022-12-13T07:05:45.165Z,-6.42
2022-12-13T07:08:22.375Z,-6.36
2022-12-13T07:10:55.400Z,-6.23
2022-12-13T07:13:27.084Z,-6.16
2022-12-13T07:16:01.032Z,-6.14
2022-12-13T07:18:33.614Z,-6.11
2022-12-13T07:21:09.551Z,-6.09
2022-12-13T07:23:55.421Z,-6.04
2022-12-13T07:26:27.324Z,-5.42
2022-12-13T07:28:59.050Z,-4.88
2022-12-13T07:31:30.877Z,-4.07
2022-12-13T07:34:02.724Z,-2.75
2022-12-13T07:36:34.362Z,-1.59
2022-12-13T07:39:05.985Z,-0.57
2022-12-13T07:41:37.736Z,0.59
2022-12-13T07:44:10.917Z,1.67
2022-12-13T07:46:42.624Z,2.71
2022-12-13T07:49:14.347Z,3.74
2022-12-13T07:51:45.931Z,4.75
2022-12-13T07:54:17.950Z,5.74
2022-12-13T07:56:49.490Z,6.61
2022-12-13T07:59:28.520Z,7.28
2022-12-13T08:02:01.736Z,8.06
2022-12-13T08:04:38.030Z,8.73
2022-12-13T08:07:10.618Z,8.99
2022-12-13T08:09:42.211Z,9.58
2022-12-13T08:12:13.885Z,10.31
2022-12-13T08:14:55.246Z,10.95
2022-12-13T08:17:26.913Z,11.24
2022-12-13T08:19:58.534Z,11.21
2022-12-13T08:22:30.187Z,11.57
2022-12-13T08:25:08.042Z,11.99
2022-12-13T08:27:43.035Z,12.71
2022-12-13T08:30:20.480Z,13.07
2022-12-13T08:32:56.005Z,13.56
2022-12-13T08:35:33.694Z,13.87
2022-12-13T08:38:05.488Z,14.02
2022-12-13T08:40:37.242Z,13.87
2022-12-13T08:43:09.027Z,13.83
2022-12-13T08:45:40.676Z,14.12
2022-12-13T08:48:12.769Z,13.98
2022-12-13T08:50:44.342Z,13.99
2022-12-13T08:53:28.594Z,14.14
2022-12-13T08:56:03.300Z,14.59
2022-12-13T08:58:34.975Z,15.12
2022-12-13T09:01:07.970Z,15.35
2022-12-13T09:03:39.681Z,15.33
2022-12-13T09:06:14.379Z,15.15
2022-12-13T09:08:51.735Z,14.66
2022-12-13T09:11:34.837Z,14.17
2022-12-13T09:14:14.153Z,14.24
2022-12-13T09:16:50.598Z,14.22
2022-12-13T09:19:26.704Z,14.44
2022-12-13T09:22:02.736Z,14.99
2022-12-13T09:24:35.843Z,14.58
2022-12-13T09:27:10.344Z,14.19
2022-12-13T09:29:58.818Z,14.89
2022-12-13T09:32:32.055Z,15.02
2022-12-13T09:35:06.841Z,14.33
2022-12-13T09:37:44.107Z,13.59
2022-12-13T09:40:26.277Z,12.87
2022-12-13T09:43:12.325Z,12.52
2022-12-13T09:45:50.875Z,12.68
2022-12-13T09:48:23.825Z,12.91
2022-12-13T09:51:16.693Z,13.38
2022-12-13T09:53:50.691Z,13.51
2022-12-13T09:56:23.925Z,13.59
2022-12-13T09:58:56.966Z,13.96
2022-12-13T10:01:28.705Z,14.43
2022-12-13T10:04:01.380Z,15.34
2022-12-13T10:06:34.696Z,15.49
2022-12-13T10:09:12.251Z,15.36
2022-12-13T10:11:51.386Z,15.24
2022-12-13T10:14:31.443Z,13.80
2022-12-13T10:17:07.488Z,13.60
2022-12-13T10:19:43.317Z,13.78
2022-12-13T10:22:17.333Z,14.62
2022-12-13T10:24:52.197Z,15.49
2022-12-13T10:27:33.113Z,15.72
2022-12-13T10:30:28.732Z,15.48
2022-12-13T10:33:03.740Z,15.11
2022-12-13T10:35:40.908Z,15.09
2022-12-13T10:38:18.544Z,15.12
2022-12-13T10:40:50.228Z,14.84
2022-12-13T10:43:27.796Z,14.52
2022-12-13T10:46:03.007Z,14.85
2022-12-13T10:48:40.190Z,14.90
2022-12-13T10:51:14.418Z,14.83
2022-12-13T10:53:49.949Z,14.90
2022-12-13T10:56:24.130Z,14.70
2022-12-13T10:59:24.633Z,13.72
2022-12-13T11:01:56.382Z,13.00
2022-12-13T11:04:29.923Z,11.45
2022-12-13T11:07:28.113Z,9.78
2022-12-13T11:10:41.555Z,8.46
2022-12-13T11:13:43.844Z,7.57
2022-12-13T11:16:26.102Z,6.68
2022-12-13T11:19:02.593Z,5.88
2022-12-13T11:21:37.774Z,5.25
2022-12-13T11:24:16.849Z,4.80
2022-12-13T11:27:03.071Z,4.37
2022-12-13T11:29:58.893Z,4.22
2022-12-13T11:32:33.116Z,3.92
2022-12-13T11:35:28.060Z,3.61
2022-12-13T11:38:11.243Z,3.39
2022-12-13T11:40:53.043Z,3.16
2022-12-13T11:43:58.309Z,2.67
2022-12-13T11:46:40.448Z,2.13
2022-12-13T11:49:40.934Z,1.85
2022-12-13T11:52:23.631Z,1.78
2022-12-13T11:55:03.775Z,1.42
2022-12-13T11:57:41.640Z,1.18
2022-12-13T12:00:33.631Z,0.79
2022-12-13T12:03:09.297Z,0.80
2022-12-13T12:05:47.020Z,0.91
2022-12-13T12:08:32.388Z,1.58
2022-12-13T12:11:10.816Z,1.70
2022-12-13T12:14:13.070Z,1.83
2022-12-13T12:16:53.958Z,2.40
2022-12-13T12:19:31.668Z,3.15
2022-12-13T12:22:32.386Z,2.36
2022-12-13T12:25:38.177Z,2.11
2022-12-13T12:28:44.571Z,1.52
2022-12-13T12:31:30.118Z,1.33
2022-12-13T12:34:40.457Z,1.27
2022-12-13T12:37:47.774Z,1.23
2022-12-13T12:41:15.687Z,0.74
2022-12-13T12:44:06.582Z,0.77
2022-12-13T12:49:41.040Z,0.61
2022-12-13T12:52:50.600Z,0.44
2022-12-13T12:55:51.556Z,0.36
2022-12-13T12:58:44.919Z,0.28
2022-12-13T13:01:54.083Z,0.03
2022-12-13T13:04:36.330Z,-0.27
2022-12-13T13:07:22.527Z,-0.42
2022-12-13T13:09:57.292Z,-0.54
2022-12-13T13:12:31.042Z,-0.75
2022-12-13T13:15:33.608Z,-0.88
2022-12-13T13:18:43.768Z,-1.01
2022-12-13T13:21:24.362Z,-1.16
2022-12-13T13:24:08.500Z,-1.25
2022-12-13T13:26:46.578Z,-1.37
2022-12-13T13:29:27.479Z,-1.52
2022-12-13T13:32:12.378Z,-1.64
2022-12-13T13:35:32.537Z,-1.75
2022-12-13T13:38:22.860Z,-2.08
2022-12-13T13:40:55.164Z,-2.16
2022-12-13T13:43:32.580Z,-2.23
2022-12-13T13:46:13.104Z,-2.27
2022-12-13T13:49:05.369Z,-2.34
2022-12-13T13:52:08.573Z,-2.47
2022-12-13T13:55:05.726Z,-2.59
2022-12-13T13:58:12.991Z,-2.88
2022-12-13T14:00:56.815Z,-3.01
2022-12-13T14:03:48.673Z,-3.11
2022-12-13T14:06:46.649Z,-3.13
2022-12-13T14:09:45.827Z,-3.17
2022-12-13T14:12:42.806Z,-3.24
2022-12-13T14:15:59.613Z,-3.42
2022-12-13T14:19:11.085Z,-3.55
2022-12-13T14:22:02.839Z,-3.66
2022-12-13T14:24:59.529Z,-3.70
2022-12-13T14:27:46.895Z,-3.74
2022-12-13T14:30:28.202Z,-3.73
2022-12-13T14:33:03.619Z,-3.78
2022-12-13T14:35:35.674Z,-3.86
2022-12-13T14:38:25.942Z,-3.99
2022-12-13T14:41:08.515Z,-4.08
2022-12-13T14:43:43.228Z,-4.17
2022-12-13T14:46:20.406Z,-4.19
2022-12-13T14:48:54.034Z,-4.30
2022-12-13T14:51:32.816Z,-4.34
2022-12-13T14:54:15.554Z,-4.35
2022-12-13T14:57:02.535Z,-4.33
2022-12-13T14:59:50.402Z,-4.37
2022-12-13T15:02:31.272Z,-4.43
2022-12-13T15:05:05.707Z,-4.48
2022-12-13T15:07:44.849Z,-4.51
2022-12-13T15:10:25.374Z,-4.51
2022-12-13T15:13:00.343Z,-4.53
2022-12-13T15:15:36.985Z,-4.59
2022-12-13T15:18:24.534Z,-4.65
2022-12-13T15:21:02.540Z,-4.67
2022-12-13T15:23:56.077Z,-4.67
2022-12-13T15:26:34.422Z,-4.64
2022-12-13T15:29:14.825Z,-4.61
2022-12-13T15:31:49.106Z,-4.66
2022-12-13T15:34:31.111Z,-4.64
2022-12-13T15:37:29.413Z,-4.62
2022-12-13T15:40:08.767Z,-4.65
2022-12-13T15:42:47.138Z,-4.61
2022-12-13T15:45:22.889Z,-4.61
2022-12-13T15:47:55.139Z,-4.59
2022-12-13T15:50:45.519Z,-4.60
2022-12-13T15:53:30.654Z,-4.61
2022-12-13T15:56:09.491Z,-4.63
2022-12-13T15:58:41.404Z,-4.61
2022-12-13T16:01:26.082Z,-4.59
2022-12-13T16:04:03.663Z,-4.61
2022-12-13T16:06:35.308Z,-4.60
2022-12-13T16:09:18.608Z,-4.68
2022-12-13T16:12:01.917Z,-4.69
2022-12-13T16:14:49.030Z,-4.73
2022-12-13T16:17:27.434Z,-4.80
2022-12-13T16:20:02.066Z,-4.79
2022-12-13T16:22:35.191Z,-4.78
2022-12-13T16:25:07.402Z,-4.76
2022-12-13T16:27:39.585Z,-4.79
2022-12-13T16:30:22.612Z,-4.79
2022-12-13T16:33:18.078Z,-4.84
2022-12-13T16:35:49.295Z,-4.86
2022-12-13T16:38:26.683Z,-4.94
2022-12-13T16:41:08.808Z,-4.96
2022-12-13T16:44:03.319Z,-5.01
2022-12-13T16:47:12.236Z,-5.08
2022-12-13T16:50:03.959Z,-5.10
2022-12-13T16:52:39.489Z,-5.07
2022-12-13T16:55:11.112Z,-5.07
2022-12-13T16:57:42.700Z,-5.07
2022-12-13T17:00:14.781Z,-5.09
2022-12-13T17:02:53.016Z,-5.09
2022-12-13T17:05:26.630Z,-5.11
2022-12-13T17:07:58.206Z,-5.13
2022-12-13T17:10:31.075Z,-5.13
2022-12-13T17:13:05.748Z,-5.17
2022-12-13T17:15:38.131Z,-5.17
2022-12-13T17:18:10.154Z,-5.20
2022-12-13T17:20:45.205Z,-5.19
2022-12-13T17:23:19.280Z,-5.19
2022-12-13T17:25:58.232Z,-5.18
2022-12-13T17:28:30.799Z,-5.22
2022-12-13T17:31:14.551Z,-5.24
2022-12-13T17:33:46.945Z,-5.31
2022-12-13T17:36:21.770Z,-5.34
2022-12-13T17:38:53.429Z,-5.37
2022-12-13T17:41:25.116Z,-5.41
2022-12-13T17:44:00.776Z,-5.40
2022-12-13T17:46:37.035Z,-5.40
2022-12-13T17:49:08.713Z,-5.42
2022-12-13T17:51:40.826Z,-5.44
2022-12-13T17:54:15.042Z,-5.54
2022-12-13T17:56:47.277Z,-5.52
2022-12-13T17:59:19.400Z,-5.53
2022-12-13T18:01:51.365Z,-5.52
2022-12-13T18:04:23.600Z,-5.55
2022-12-13T18:07:00.330Z,-5.54
2022-12-13T18:09:32.451Z,-5.53
2022-12-13T18:12:04.273Z,-5.59
2022-12-13T18:14:36.767Z,-5.61
2022-12-13T18:17:08.412Z,-5.62
2022-12-13T18:19:40.235Z,-5.59
2022-12-13T18:22:11.919Z,-5.60
2022-12-13T18:24:43.563Z,-5.60
2022-12-13T18:27:15.159Z,-5.61
2022-12-13T18:29:55.196Z,-5.64
2022-12-13T18:32:27.565Z,-5.68
2022-12-13T18:34:59.411Z,-5.65
2022-12-13T18:37:34.221Z,-5.66
2022-12-13T18:40:06.527Z,-5.66
2022-12-13T18:42:38.187Z,-5.73
2022-12-13T18:45:13.381Z,-5.77
2022-12-13T18:47:45.099Z,-5.81
2022-12-13T18:50:16.894Z,-5.84
2022-12-13T18:52:51.497Z,-5.93
2022-12-13T18:55:25.316Z,-5.94
2022-12-13T18:57:59.379Z,-5.97
2022-12-13T19:00:32.919Z,-6.03
2022-12-13T19:03:07.677Z,-6.05
2022-12-13T19:05:59.765Z,-6.10
2022-12-13T19:08:32.146Z,-6.16
2022-12-13T19:11:04.222Z,-6.17
2022-12-13T19:13:36.038Z,-6.21
2022-12-13T19:16:20.933Z,-6.23
2022-12-13T19:18:55.856Z,-6.23
2022-12-13T19:21:32.519Z,-6.25
2022-12-13T19:24:04.985Z,-6.31
2022-12-13T19:26:38.426Z,-6.30
2022-12-13T19:29:10.168Z,-6.27
2022-12-13T19:31:47.742Z,-6.26
2022-12-13T19:34:22.191Z,-6.41
2022-12-13T19:37:06.297Z,-6.48
2022-12-13T19:39:38.746Z,-6.47
2022-12-13T19:42:10.866Z,-6.48
2022-12-13T19:44:42.633Z,-6.53
2022-12-13T19:47:14.347Z,-6.58
2022-12-13T19:49:48.159Z,-6.57
2022-12-13T19:52:21.196Z,-6.67
2022-12-13T19:54:53.122Z,-6.75
2022-12-13T19:57:25.426Z,-6.82
2022-12-13T19:59:59.664Z,-6.86
2022-12-13T20:02:45.166Z,-6.83
2022-12-13T20:05:17.671Z,-6.74
2022-12-13T20:07:51.232Z,-6.70
2022-12-13T20:10:22.825Z,-6.65
2022-12-13T20:12:54.483Z,-6.64
2022-12-13T20:18:24.679Z,-6.71
2022-12-13T20:21:15.061Z,-6.74
2022-12-13T20:23:49.282Z,-6.74
2022-12-13T20:26:28.004Z,-6.76
2022-12-13T20:29:01.723Z,-6.70
2022-12-13T20:31:35.164Z,-6.60
2022-12-13T20:34:10.212Z,-6.55
2022-12-13T20:36:46.412Z,-6.53
2022-12-13T20:39:18.316Z,-6.52
2022-12-13T20:41:50.062Z,-6.51
2022-12-13T20:44:21.947Z,-6.47
2022-12-13T20:46:53.867Z,-6.49
2022-12-13T20:49:25.740Z,-6.52
2022-12-13T20:52:00.605Z,-6.48
2022-12-13T20:54:32.520Z,-6.54
2022-12-13T20:57:04.122Z,-6.57
2022-12-13T20:59:36.020Z,-6.57
2022-12-13T21:02:07.682Z,-6.75
2022-12-13T21:04:40.418Z,-6.85
2022-12-13T21:07:15.322Z,-6.81
2022-12-13T21:09:47.149Z,-6.72
2022-12-13T21:12:18.761Z,-6.70
2022-12-13T21:14:52.570Z,-6.65
2022-12-13T21:17:28.768Z,-6.65
2022-12-13T21:20:00.355Z,-6.59
2022-12-13T21:22:31.974Z,-6.58
2022-12-13T21:25:04.949Z,-6.58
2022-12-13T21:27:36.540Z,-6.55
2022-12-13T21:30:08.826Z,-6.54
2022-12-13T21:32:40.475Z,-6.51
2022-12-13T21:35:18.175Z,-6.54
2022-12-13T21:37:52.590Z,-6.58
2022-12-13T21:40:29.384Z,-6.59
2022-12-13T21:43:01.090Z,-6.69
2022-12-13T21:45:57.781Z,-6.85
2022-12-13T21:48:29.475Z,-6.90
2022-12-13T21:51:01.841Z,-6.93
2022-12-13T21:53:35.008Z,-6.97
2022-12-13T21:56:26.658Z,-7.01
2022-12-13T21:59:19.392Z,-7.03
2022-12-13T22:02:12.367Z,-7.08
2022-12-13T22:04:55.620Z,-7.15
2022-12-13T22:07:37.832Z,-7.22
2022-12-13T22:10:10.073Z,-7.31
2022-12-13T22:12:43.251Z,-7.27
2022-12-13T22:15:16.159Z,-7.24
2022-12-13T22:17:49.740Z,-7.20
2022-12-13T22:20:22.173Z,-7.22
2022-12-13T22:22:53.832Z,-7.21
2022-12-13T22:25:28.202Z,-7.21
2022-12-13T22:28:00.381Z,-7.23
2022-12-13T22:30:33.008Z,-7.21
2022-12-13T22:33:04.554Z,-7.20
2022-12-13T22:35:41.225Z,-7.21
2022-12-13T22:38:12.911Z,-7.29
2022-12-13T22:40:45.922Z,-7.34
2022-12-13T22:43:20.531Z,-7.36
2022-12-13T22:45:52.517Z,-7.47
2022-12-13T22:48:25.463Z,-7.48
2022-12-13T22:51:11.350Z,-7.43
2022-12-13T22:53:47.162Z,-7.45
2022-12-13T22:56:23.139Z,-7.44
2022-12-13T22:58:57.211Z,-7.62
2022-12-13T23:01:34.594Z,-7.63
2022-12-13T23:04:07.492Z,-7.65
2022-12-13T23:06:40.348Z,-7.58
2022-12-13T23:09:14.179Z,-7.55
2022-12-13T23:12:04.826Z,-7.51
2022-12-13T23:14:36.478Z,-7.46
2022-12-13T23:17:10.958Z,-7.41
2022-12-13T23:19:52.864Z,-7.37
2022-12-13T23:22:25.957Z,-7.38
2022-12-13T23:24:57.769Z,-7.33
2022-12-13T23:27:29.672Z,-7.37
2022-12-13T23:30:02.028Z,-7.40
2022-12-13T23:32:34.751Z,-7.48
2022-12-13T23:35:08.318Z,-7.52
2022-12-13T23:37:40.044Z,-7.51
2022-12-13T23:40:12.052Z,-7.61
2022-12-13T23:42:43.714Z,-7.54
2022-12-13T23:45:15.377Z,-7.57
2022-12-13T23:47:47.104Z,-7.55
2022-12-13T23:50:18.794Z,-7.55
2022-12-13T23:52:50.412Z,-7.48
2022-12-13T23:55:22.127Z,-7.45
2022-12-13T23:57:53.797Z,-7.39
